Time;durP1;ratioP1;P1;durP2;ratioP2;P2;SDS_P1;SDS_P2;PMS_P1;PMS_P2;Temp;Humidity;BMP_temperature;BMP_pressure;BME280_temperature;BME280_humidity;BME280_pressure;Samples;Min_cycle;Max_cycle;Signal;HPM_P1;HPM_P2
2023/09/06 00:02:00;;;;;;;65.15;26.88;;;;;;;;;;5002542;28;20053;-59
2023/09/06 00:04:54;;;;;;;82.07;28.83;;;;;;;;;;5003329;28;20053;-59
2023/09/06 00:07:44;;;;;;;77.15;26.42;;;;;;;;;;4999384;28;20065;-59
2023/09/06 00:10:40;;;;;;;66.60;25.60;;;;;;;;;;4998622;28;20065;-59
2023/09/06 00:13:26;;;;;;;78.88;29.70;;;;;;;;;;4997649;28;20108;-60
2023/09/06 00:16:20;;;;;;;73.07;25.58;;;;;;;;;;5002202;28;20117;-59
2023/09/06 00:19:14;;;;;;;82.32;27.95;;;;;;;;;;5000850;28;20587;-49
2023/09/06 00:21:59;;;;;;;88.78;29.58;;;;;;;;;;4988038;28;21850;-60
2023/09/06 00:24:26;;;;;;;69.28;26.50;;;;;;;;;;4993520;28;20061;-62
2023/09/06 00:27:03;;;;;;;77.22;28.83;;;;;;;;;;4999043;28;20082;-61
2023/09/06 00:29:32;;;;;;;69.55;26.95;;;;;;;;;;5001407;28;20100;-60
2023/09/06 00:32:24;;;;;;;75.38;26.08;;;;;;;;;;5002149;28;20058;-62
2023/09/06 00:35:12;;;;;;;72.32;26.83;;;;;;;;;;5002097;28;20477;-61
2023/09/06 00:38:06;;;;;;;82.65;29.73;;;;;;;;;;5005639;28;20090;-62
2023/09/06 00:40:59;;;;;;;87.90;30.33;;;;;;;;;;5005507;28;20497;-62
2023/09/06 00:44:00;;;;;;;82.85;25.75;;;;;;;;;;5004767;28;20046;-62
2023/09/06 00:46:54;;;;;;;75.90;26.42;;;;;;;;;;5001603;28;20509;-60
2023/09/06 00:49:48;;;;;;;94.32;29.70;;;;;;;;;;5002565;28;20053;-59
2023/09/06 00:52:35;;;;;;;81.53;29.67;;;;;;;;;;5001894;28;20046;-59
2023/09/06 00:55:29;;;;;;;71.65;27.73;;;;;;;;;;5002256;28;20045;-59
2023/09/06 00:58:18;;;;;;;113.05;30.25;;;;;;;;;;5005520;28;20046;-58
2023/09/06 01:01:11;;;;;;;89.32;28.85;;;;;;;;;;5005893;28;20057;-59
2023/09/06 01:03:59;;;;;;;82.32;27.15;;;;;;;;;;4999636;28;20699;-59
2023/09/06 01:06:55;;;;;;;90.15;25.08;;;;;;;;;;5002118;28;20061;-58
2023/09/06 01:09:48;;;;;;;100.28;28.52;;;;;;;;;;5000299;28;20112;-59
2023/09/06 01:12:42;;;;;;;95.22;28.17;;;;;;;;;;4998928;28;20046;-58
2023/09/06 01:15:30;;;;;;;98.18;28.13;;;;;;;;;;5001704;28;20090;-58
2023/09/06 01:18:38;;;;;;;114.25;30.75;;;;;;;;;;4998860;28;20460;-58
2023/09/06 01:21:58;;;;;;;139.82;30.90;;;;;;;;;;5003672;28;20058;-58
2023/09/06 01:24:53;;;;;;;103.27;26.43;;;;;;;;;;4989055;28;20054;-59
2023/09/06 01:27:47;;;;;;;74.68;25.45;;;;;;;;;;4996205;28;20061;-59
2023/09/06 01:30:35;;;;;;;80.05;28.20;;;;;;;;;;4992237;28;20074;-59
2023/09/06 01:33:29;;;;;;;132.38;28.65;;;;;;;;;;4994754;28;20062;-63
2023/09/06 01:36:16;;;;;;;64.05;20.90;;;;;;;;;;5007169;28;20422;-63
2023/09/06 01:39:11;;;;;;;96.72;27.58;;;;;;;;;;5008209;28;20107;-63
2023/09/06 01:41:58;;;;;;;108.68;29.48;;;;;;;;;;5005380;28;20646;-48
2023/09/06 01:44:53;;;;;;;92.65;27.00;;;;;;;;;;5006829;28;20050;-59
2023/09/06 01:47:39;;;;;;;79.82;26.45;;;;;;;;;;5002753;28;20081;-59
2023/09/06 01:50:33;;;;;;;108.75;30.08;;;;;;;;;;5008816;28;20100;-59
2023/09/06 01:53:22;;;;;;;80.90;27.13;;;;;;;;;;5007768;28;20082;-59
2023/09/06 01:56:13;;;;;;;114.30;31.13;;;;;;;;;;5004199;28;20061;-59
2023/09/06 01:59:00;;;;;;;121.53;32.03;;;;;;;;;;5004483;28;20077;-59
2023/09/06 02:01:56;;;;;;;123.72;34.58;;;;;;;;;;5003622;28;20120;-59
2023/09/06 02:04:41;;;;;;;91.90;27.80;;;;;;;;;;5003685;28;20124;-59
2023/09/06 02:07:36;;;;;;;104.15;31.27;;;;;;;;;;5002521;28;20060;-59
2023/09/06 02:10:23;;;;;;;87.05;28.75;;;;;;;;;;5001399;28;20054;-64
2023/09/06 02:13:16;;;;;;;69.95;24.58;;;;;;;;;;5003323;28;20132;-61
2023/09/06 02:16:06;;;;;;;62.22;23.30;;;;;;;;;;5005968;28;20045;-55
2023/09/06 02:19:11;;;;;;;73.50;23.60;;;;;;;;;;5005093;28;20152;-57
2023/09/06 02:22:05;;;;;;;67.05;22.75;;;;;;;;;;5020566;28;20050;-56
2023/09/06 02:25:01;;;;;;;87.63;25.98;;;;;;;;;;5025461;28;20468;-57
2023/09/06 02:27:47;;;;;;;88.55;25.70;;;;;;;;;;5022332;28;20050;-54
2023/09/06 02:30:41;;;;;;;110.22;26.65;;;;;;;;;;5019187;28;20531;-57
2023/09/06 02:33:28;;;;;;;65.88;22.95;;;;;;;;;;5020543;28;20139;-55
2023/09/06 02:36:21;;;;;;;75.35;22.45;;;;;;;;;;5024657;28;20053;-57
2023/09/06 02:39:09;;;;;;;73.93;25.25;;;;;;;;;;5019081;28;20057;-63
2023/09/06 02:42:02;;;;;;;81.03;26.48;;;;;;;;;;5017608;28;20464;-64
2023/09/06 02:44:50;;;;;;;58.83;20.42;;;;;;;;;;5017865;28;20053;-64
2023/09/06 02:47:50;;;;;;;62.42;20.17;;;;;;;;;;5020747;28;20056;-64
2023/09/06 02:50:39;;;;;;;50.78;20.85;;;;;;;;;;5018890;28;20119;-63
2023/09/06 02:53:32;;;;;;;60.10;23.48;;;;;;;;;;5017093;28;20462;-63
2023/09/06 02:56:19;;;;;;;45.28;20.48;;;;;;;;;;5018408;28;20118;-63
2023/09/06 02:59:15;;;;;;;46.20;20.67;;;;;;;;;;5018269;28;20081;-59
2023/09/06 03:02:01;;;;;;;53.42;18.90;;;;;;;;;;5017973;28;20053;-59
2023/09/06 03:05:03;;;;;;;39.50;16.83;;;;;;;;;;5022043;28;20515;-59
2023/09/06 03:07:53;;;;;;;43.88;19.55;;;;;;;;;;5019305;28;20049;-52
2023/09/06 03:10:46;;;;;;;36.08;15.60;;;;;;;;;;5020236;28;20489;-57
2023/09/06 03:13:30;;;;;;;31.00;13.57;;;;;;;;;;5022535;28;20049;-56
2023/09/06 03:16:25;;;;;;;28.23;14.18;;;;;;;;;;5021613;28;20906;-57
2023/09/06 03:19:23;;;;;;;29.20;13.88;;;;;;;;;;5013868;28;20156;-55
2023/09/06 03:22:25;;;;;;;31.58;12.70;;;;;;;;;;4995391;28;20474;-57
2023/09/06 03:25:10;;;;;;;23.05;12.13;;;;;;;;;;4999688;28;20042;-55
2023/09/06 03:28:05;;;;;;;20.65;11.57;;;;;;;;;;5000412;28;20055;-59
2023/09/06 03:30:54;;;;;;;27.60;11.93;;;;;;;;;;4994619;28;20053;-58
2023/09/06 03:33:47;;;;;;;21.20;11.32;;;;;;;;;;4997577;28;20053;-58
2023/09/06 03:36:35;;;;;;;23.63;12.38;;;;;;;;;;4996748;28;20049;-63
2023/09/06 03:39:28;;;;;;;36.17;12.80;;;;;;;;;;4992903;28;21066;-57
2023/09/06 03:42:00;;;;;;;19.35;10.73;;;;;;;;;;5002154;28;20077;-57
2023/09/06 03:44:31;;;;;;;24.33;12.05;;;;;;;;;;4996433;28;20053;-57
2023/09/06 03:47:06;;;;;;;23.67;12.68;;;;;;;;;;5001298;28;20049;-57
2023/09/06 03:49:35;;;;;;;26.30;13.13;;;;;;;;;;5002383;28;20073;-57
2023/09/06 03:52:16;;;;;;;21.10;11.88;;;;;;;;;;5008063;28;20049;-57
2023/09/06 03:54:43;;;;;;;28.38;11.57;;;;;;;;;;5006847;28;20057;-46
2023/09/06 03:57:18;;;;;;;22.83;11.63;;;;;;;;;;5008084;28;20509;-47
2023/09/06 03:59:46;;;;;;;22.70;12.27;;;;;;;;;;5006023;28;20065;-50
2023/09/06 04:02:39;;;;;;;26.95;12.07;;;;;;;;;;5001349;28;20054;-50
2023/09/06 04:05:27;;;;;;;30.85;12.13;;;;;;;;;;4993272;28;20073;-48
2023/09/06 04:08:25;;;;;;;27.90;12.43;;;;;;;;;;4998879;28;20579;-48
2023/09/06 04:11:09;;;;;;;25.30;11.70;;;;;;;;;;4993280;28;20054;-49
2023/09/06 04:14:02;;;;;;;28.15;11.35;;;;;;;;;;4989074;28;20054;-48
2023/09/06 04:16:50;;;;;;;25.60;12.27;;;;;;;;;;4991454;28;20049;-48
2023/09/06 04:19:50;;;;;;;25.52;11.93;;;;;;;;;;5004330;28;20049;-50
2023/09/06 04:22:37;;;;;;;25.00;12.73;;;;;;;;;;5004908;28;20517;-61
2023/09/06 04:25:33;;;;;;;27.45;11.63;;;;;;;;;;5006925;28;20058;-59
2023/09/06 04:28:25;;;;;;;29.27;12.20;;;;;;;;;;4992785;28;20053;-49
2023/09/06 04:31:19;;;;;;;21.98;11.13;;;;;;;;;;5006193;28;20046;-52
2023/09/06 04:34:13;;;;;;;26.27;12.40;;;;;;;;;;5005553;28;20060;-51
2023/09/06 04:37:11;;;;;;;33.38;13.35;;;;;;;;;;5004580;28;20953;-53
2023/09/06 04:39:54;;;;;;;28.25;13.70;;;;;;;;;;5006045;28;20058;-50
2023/09/06 04:42:48;;;;;;;29.23;12.93;;;;;;;;;;5008720;28;20463;-61
2023/09/06 04:45:39;;;;;;;28.05;12.63;;;;;;;;;;5002496;28;20112;-61
2023/09/06 04:48:32;;;;;;;23.70;12.13;;;;;;;;;;5001988;28;20081;-60
2023/09/06 04:51:20;;;;;;;24.08;11.68;;;;;;;;;;4998346;28;20058;-49
2023/09/06 04:54:13;;;;;;;27.15;11.57;;;;;;;;;;4994166;28;21721;-61
2023/09/06 04:57:01;;;;;;;23.45;11.75;;;;;;;;;;4993182;28;20161;-61
2023/09/06 04:59:54;;;;;;;24.88;12.32;;;;;;;;;;4990196;28;20107;-61
2023/09/06 05:02:42;;;;;;;20.20;10.95;;;;;;;;;;4997901;28;20136;-61
2023/09/06 05:05:36;;;;;;;24.45;10.95;;;;;;;;;;4994927;28;20064;-61
2023/09/06 05:08:04;;;;;;;24.45;12.23;;;;;;;;;;4984381;28;20057;-61
2023/09/06 05:10:59;;;;;;;22.15;11.07;;;;;;;;;;5000779;28;20494;-50
2023/09/06 05:13:53;;;;;;;33.97;12.18;;;;;;;;;;5001527;28;20096;-52
2023/09/06 05:16:40;;;;;;;29.25;12.13;;;;;;;;;;5005639;28;20053;-52
2023/09/06 05:19:40;;;;;;;32.15;12.40;;;;;;;;;;5007801;28;20061;-48
2023/09/06 05:22:27;;;;;;;23.45;11.93;;;;;;;;;;5009506;28;20142;-50
2023/09/06 05:25:21;;;;;;;21.02;10.65;;;;;;;;;;5007256;28;20403;-47
2023/09/06 05:28:10;;;;;;;22.15;10.93;;;;;;;;;;5006895;28;20045;-63
2023/09/06 05:31:03;;;;;;;22.40;10.43;;;;;;;;;;5005957;28;20050;-63
2023/09/06 05:33:51;;;;;;;25.92;11.18;;;;;;;;;;5005761;28;20073;-61
2023/09/06 05:36:44;;;;;;;23.40;10.73;;;;;;;;;;5006539;28;20049;-63
2023/09/06 05:39:31;;;;;;;17.02;10.20;;;;;;;;;;5006569;28;20069;-58
2023/09/06 05:42:25;;;;;;;18.95;9.10;;;;;;;;;;5004603;28;20053;-58
2023/09/06 05:45:13;;;;;;;21.85;9.48;;;;;;;;;;5006303;28;20763;-58
2023/09/06 05:48:07;;;;;;;21.50;10.25;;;;;;;;;;5005322;28;20073;-59
2023/09/06 05:50:57;;;;;;;21.05;10.18;;;;;;;;;;5005829;28;20148;-58
2023/09/06 05:53:50;;;;;;;21.65;11.45;;;;;;;;;;5006709;28;20481;-58
2023/09/06 05:56:45;;;;;;;17.33;10.13;;;;;;;;;;5002788;28;20074;-49
2023/09/06 05:59:39;;;;;;;20.58;9.75;;;;;;;;;;4998209;28;20587;-47
2023/09/06 06:02:26;;;;;;;15.88;9.00;;;;;;;;;;5004753;28;20053;-47
2023/09/06 06:05:20;;;;;;;19.50;8.98;;;;;;;;;;5004244;28;20077;-48
2023/09/06 06:08:09;;;;;;;18.20;8.18;;;;;;;;;;5008189;28;20452;-62
2023/09/06 06:11:04;;;;;;;18.05;8.30;;;;;;;;;;5006095;28;20042;-51
2023/09/06 06:13:54;;;;;;;15.73;8.50;;;;;;;;;;5000621;28;20673;-50
2023/09/06 06:16:47;;;;;;;17.75;8.70;;;;;;;;;;5006634;28;20145;-50
2023/09/06 06:19:41;;;;;;;14.05;8.30;;;;;;;;;;5005532;28;20064;-51
2023/09/06 06:22:39;;;;;;;20.25;9.05;;;;;;;;;;5007935;28;20502;-51
2023/09/06 06:25:25;;;;;;;17.27;8.77;;;;;;;;;;5000273;28;20722;-50
2023/09/06 06:28:19;;;;;;;17.15;8.35;;;;;;;;;;5004171;28;20065;-50
2023/09/06 06:31:07;;;;;;;13.80;8.35;;;;;;;;;;5008581;28;20052;-49
2023/09/06 06:34:00;;;;;;;11.85;7.57;;;;;;;;;;5009240;28;20119;-49
2023/09/06 06:36:48;;;;;;;18.38;8.82;;;;;;;;;;5007643;28;21104;-53
2023/09/06 06:39:41;;;;;;;13.60;7.85;;;;;;;;;;5006500;28;20061;-60
2023/09/06 06:42:29;;;;;;;14.25;8.43;;;;;;;;;;5008974;28;20049;-60
2023/09/06 06:45:22;;;;;;;15.57;8.93;;;;;;;;;;5005663;28;20108;-60
2023/09/06 06:48:10;;;;;;;18.35;8.43;;;;;;;;;;5007371;28;20046;-60
2023/09/06 06:51:03;;;;;;;13.18;8.02;;;;;;;;;;5011355;28;20065;-60
2023/09/06 06:53:51;;;;;;;14.38;7.90;;;;;;;;;;5009192;28;20061;-61
2023/09/06 06:56:44;;;;;;;13.70;7.20;;;;;;;;;;5004076;28;20049;-61
2023/09/06 06:59:32;;;;;;;10.63;7.13;;;;;;;;;;5009525;28;20057;-60
2023/09/06 07:02:26;;;;;;;11.00;7.15;;;;;;;;;;5006756;28;20054;-62
2023/09/06 07:05:14;;;;;;;11.05;6.90;;;;;;;;;;5008413;28;20057;-59
2023/09/06 07:08:07;;;;;;;10.13;6.60;;;;;;;;;;5008740;28;20060;-59
2023/09/06 07:10:55;;;;;;;8.55;6.15;;;;;;;;;;5009791;28;20046;-59
2023/09/06 07:13:50;;;;;;;12.38;7.28;;;;;;;;;;5007418;28;20140;-59
2023/09/06 07:16:39;;;;;;;10.70;7.07;;;;;;;;;;5010218;28;20064;-58
2023/09/06 07:19:33;;;;;;;14.98;7.30;;;;;;;;;;5006753;28;20058;-59
2023/09/06 07:22:32;;;;;;;14.38;7.03;;;;;;;;;;5006171;28;20053;-60
2023/09/06 07:25:20;;;;;;;9.95;6.40;;;;;;;;;;5004075;28;20046;-60
2023/09/06 07:28:14;;;;;;;10.38;6.20;;;;;;;;;;5002519;28;20054;-60
2023/09/06 07:31:01;;;;;;;9.43;5.95;;;;;;;;;;5003019;28;20058;-60
2023/09/06 07:33:55;;;;;;;10.45;6.40;;;;;;;;;;5001391;28;20064;-57
2023/09/06 07:36:49;;;;;;;9.75;5.90;;;;;;;;;;5003262;28;20051;-46
2023/09/06 07:39:36;;;;;;;9.25;5.68;;;;;;;;;;5001215;28;20112;-50
2023/09/06 07:42:29;;;;;;;9.95;6.40;;;;;;;;;;5002753;28;20494;-51
2023/09/06 07:45:17;;;;;;;8.85;6.05;;;;;;;;;;5004703;28;20454;-49
2023/09/06 07:48:10;;;;;;;8.70;6.03;;;;;;;;;;5005581;28;20124;-49
2023/09/06 07:50:59;;;;;;;8.45;5.85;;;;;;;;;;5005326;28;20085;-62
2023/09/06 07:53:53;;;;;;;8.70;5.63;;;;;;;;;;5002641;28;20058;-60
2023/09/06 07:56:40;;;;;;;8.27;5.28;;;;;;;;;;5003855;28;20050;-61
2023/09/06 07:59:34;;;;;;;7.43;5.53;;;;;;;;;;5002171;28;20061;-61
2023/09/06 08:02:27;;;;;;;10.05;5.43;;;;;;;;;;5001719;28;20049;-51
2023/09/06 08:05:22;;;;;;;6.90;5.13;;;;;;;;;;5003911;28;20104;-50
2023/09/06 08:08:16;;;;;;;8.25;5.25;;;;;;;;;;5002316;28;20057;-47
2023/09/06 08:11:10;;;;;;;7.47;5.28;;;;;;;;;;5003128;28;20580;-51
2023/09/06 08:13:57;;;;;;;6.28;5.22;;;;;;;;;;5001242;28;20497;-48
2023/09/06 08:16:51;;;;;;;7.57;5.43;;;;;;;;;;5000980;28;20517;-51
2023/09/06 08:19:38;;;;;;;7.88;5.53;;;;;;;;;;5002967;28;20081;-49
2023/09/06 08:22:40;;;;;;;10.05;5.55;;;;;;;;;;5001183;28;20105;-50
2023/09/06 08:25:34;;;;;;;7.18;5.07;;;;;;;;;;5004304;28;20119;-51
2023/09/06 08:28:27;;;;;;;7.50;5.43;;;;;;;;;;5001089;28;20481;-59
2023/09/06 08:31:21;;;;;;;7.82;5.13;;;;;;;;;;5003721;28;20502;-59
2023/09/06 08:34:11;;;;;;;9.27;5.60;;;;;;;;;;5000865;28;20058;-59
2023/09/06 08:37:04;;;;;;;7.97;5.38;;;;;;;;;;5003337;28;20050;-59
2023/09/06 08:39:58;;;;;;;7.45;4.78;;;;;;;;;;5002602;28;20046;-59
2023/09/06 08:42:52;;;;;;;7.10;4.93;;;;;;;;;;5007160;28;20049;-59
2023/09/06 08:45:41;;;;;;;9.07;4.95;;;;;;;;;;5007907;28;20069;-58
2023/09/06 08:48:37;;;;;;;8.65;5.03;;;;;;;;;;5003884;28;20125;-59
2023/09/06 08:51:24;;;;;;;7.97;5.50;;;;;;;;;;5005365;28;20061;-59
2023/09/06 08:54:18;;;;;;;10.95;4.55;;;;;;;;;;5005084;28;20066;-59
2023/09/06 08:57:06;;;;;;;9.13;5.18;;;;;;;;;;4986646;28;20068;-63
2023/09/06 09:00:00;;;;;;;6.15;4.75;;;;;;;;;;5002137;28;20425;-50
2023/09/06 09:02:47;;;;;;;8.65;4.82;;;;;;;;;;5003613;28;20053;-52
2023/09/06 09:05:41;;;;;;;5.40;4.35;;;;;;;;;;5004555;28;20053;-53
2023/09/06 09:08:31;;;;;;;8.80;4.88;;;;;;;;;;5004691;28;20479;-46
2023/09/06 09:11:24;;;;;;;8.00;5.13;;;;;;;;;;5003170;28;20053;-49
2023/09/06 09:14:25;;;;;;;8.48;4.82;;;;;;;;;;4999718;28;20049;-50
2023/09/06 09:17:22;;;;;;;7.95;4.75;;;;;;;;;;5001723;28;20111;-60
2023/09/06 09:20:34;;;;;;;6.88;4.35;;;;;;;;;;5013706;28;20955;-60
2023/09/06 09:23:41;;;;;;;6.75;4.80;;;;;;;;;;5018530;28;20116;-60
2023/09/06 09:26:28;;;;;;;5.97;4.60;;;;;;;;;;5023437;28;22111;-48
2023/09/06 09:29:28;;;;;;;7.35;4.68;;;;;;;;;;5025438;28;20473;-58
2023/09/06 09:32:15;;;;;;;7.43;4.80;;;;;;;;;;5025043;28;20088;-57
2023/09/06 09:35:10;;;;;;;7.22;4.30;;;;;;;;;;5024728;28;20060;-57
2023/09/06 09:37:59;;;;;;;5.95;4.90;;;;;;;;;;5016217;28;20045;-58
2023/09/06 09:41:08;;;;;;;5.70;4.03;;;;;;;;;;5024533;28;20052;-58
2023/09/06 09:44:15;;;;;;;4.65;4.20;;;;;;;;;;5024488;28;20131;-62
2023/09/06 09:47:11;;;;;;;7.85;4.72;;;;;;;;;;5023514;28;20057;-62
2023/09/06 09:50:19;;;;;;;6.70;4.17;;;;;;;;;;5025514;28;20049;-62
2023/09/06 09:53:15;;;;;;;5.88;4.47;;;;;;;;;;5026989;28;20672;-62
2023/09/06 09:56:06;;;;;;;7.45;4.88;;;;;;;;;;5026534;28;20545;-62
2023/09/06 09:59:03;;;;;;;9.57;4.90;;;;;;;;;;5023248;28;20049;-58
2023/09/06 10:01:58;;;;;;;6.15;4.60;;;;;;;;;;5023682;28;20457;-59
2023/09/06 10:04:58;;;;;;;6.43;4.78;;;;;;;;;;5027446;28;20045;-57
2023/09/06 10:07:52;;;;;;;7.78;4.13;;;;;;;;;;5025066;28;20042;-58
2023/09/06 10:10:40;;;;;;;8.38;4.78;;;;;;;;;;5010585;28;20050;-57
2023/09/06 10:13:34;;;;;;;5.32;4.30;;;;;;;;;;5011209;28;20049;-60
2023/09/06 10:16:24;;;;;;;6.97;4.55;;;;;;;;;;5014261;28;20046;-60
2023/09/06 10:19:17;;;;;;;7.13;4.90;;;;;;;;;;5022297;28;20107;-60
2023/09/06 10:22:27;;;;;;;6.28;4.45;;;;;;;;;;5005334;28;20049;-59
2023/09/06 10:25:21;;;;;;;6.53;4.65;;;;;;;;;;5004246;28;20045;-59
2023/09/06 10:28:09;;;;;;;5.65;4.65;;;;;;;;;;5001771;28;20062;-61
2023/09/06 10:31:12;;;;;;;5.40;4.03;;;;;;;;;;5002537;28;20050;-62
2023/09/06 10:34:00;;;;;;;4.88;4.38;;;;;;;;;;5000945;28;20061;-62
2023/09/06 10:36:56;;;;;;;4.65;4.15;;;;;;;;;;5003194;28;20556;-61
2023/09/06 10:39:52;;;;;;;6.22;4.53;;;;;;;;;;4999650;28;20050;-61
2023/09/06 10:42:45;;;;;;;5.20;4.70;;;;;;;;;;5001673;28;20141;-51
2023/09/06 10:45:32;;;;;;;7.28;4.25;;;;;;;;;;5003088;28;20242;-47
2023/09/06 10:48:26;;;;;;;7.30;4.68;;;;;;;;;;5005224;28;20116;-50
2023/09/06 10:51:14;;;;;;;5.95;4.53;;;;;;;;;;5005951;28;20053;-51
2023/09/06 10:54:07;;;;;;;4.63;4.15;;;;;;;;;;5005792;28;20064;-59
2023/09/06 10:56:58;;;;;;;10.65;4.72;;;;;;;;;;5005551;28;20049;-60
2023/09/06 10:59:58;;;;;;;7.47;4.47;;;;;;;;;;5003385;28;20061;-60
2023/09/06 11:03:07;;;;;;;6.75;4.22;;;;;;;;;;5007312;28;20069;-59
2023/09/06 11:05:56;;;;;;;7.10;4.55;;;;;;;;;;5005113;28;20049;-60
2023/09/06 11:08:52;;;;;;;8.35;4.63;;;;;;;;;;5003151;28;20640;-59
2023/09/06 11:11:39;;;;;;;6.13;4.63;;;;;;;;;;5004024;28;20513;-57
2023/09/06 11:14:33;;;;;;;5.82;4.53;;;;;;;;;;5003599;28;20054;-57
2023/09/06 11:17:21;;;;;;;6.72;4.57;;;;;;;;;;5004141;28;20058;-57
2023/09/06 11:20:22;;;;;;;9.02;4.65;;;;;;;;;;5005253;28;20045;-57
2023/09/06 11:23:16;;;;;;;6.47;4.45;;;;;;;;;;5005231;28;20053;-59
2023/09/06 11:26:16;;;;;;;6.00;4.50;;;;;;;;;;5004761;28;20136;-60
2023/09/06 11:29:14;;;;;;;5.70;4.70;;;;;;;;;;5005244;28;20659;-59
2023/09/06 11:32:15;;;;;;;5.38;4.45;;;;;;;;;;5004652;28;20080;-60
2023/09/06 11:35:09;;;;;;;8.00;4.60;;;;;;;;;;5002088;28;20050;-59
2023/09/06 11:37:56;;;;;;;5.88;4.63;;;;;;;;;;5004774;28;20042;-59
2023/09/06 11:40:49;;;;;;;7.28;4.47;;;;;;;;;;5003966;28;20135;-59
2023/09/06 11:43:42;;;;;;;5.15;4.47;;;;;;;;;;5003355;28;20053;-59
2023/09/06 11:46:31;;;;;;;5.75;4.30;;;;;;;;;;5001695;28;20055;-59
2023/09/06 11:49:21;;;;;;;5.82;4.00;;;;;;;;;;5006103;28;20054;-62
2023/09/06 11:52:16;;;;;;;5.43;4.20;;;;;;;;;;5005786;28;20057;-62
2023/09/06 11:55:21;;;;;;;4.18;3.78;;;;;;;;;;5003797;28;20086;-62
2023/09/06 11:58:16;;;;;;;5.40;3.83;;;;;;;;;;5004022;28;20765;-63
2023/09/06 12:01:05;;;;;;;6.47;3.90;;;;;;;;;;5000968;28;20107;-62
2023/09/06 12:03:59;;;;;;;5.38;3.92;;;;;;;;;;5003884;28;20414;-62
2023/09/06 12:06:44;;;;;;;5.80;4.63;;;;;;;;;;5005172;28;20064;-53
2023/09/06 12:09:38;;;;;;;6.78;4.30;;;;;;;;;;4999283;28;20827;-49
2023/09/06 12:12:26;;;;;;;5.80;4.10;;;;;;;;;;5004454;28;20549;-51
2023/09/06 12:15:20;;;;;;;4.47;4.00;;;;;;;;;;5007200;28;20144;-52
2023/09/06 12:18:07;;;;;;;5.82;4.30;;;;;;;;;;5006751;28;20058;-60
2023/09/06 12:21:07;;;;;;;5.40;4.15;;;;;;;;;;5007837;28;20056;-51
2023/09/06 12:23:35;;;;;;;4.75;3.97;;;;;;;;;;5006478;28;20053;-53
2023/09/06 12:26:09;;;;;;;4.38;3.97;;;;;;;;;;5006339;28;20053;-52
2023/09/06 12:28:36;;;;;;;4.72;3.72;;;;;;;;;;5006105;28;20511;-49
2023/09/06 12:31:11;;;;;;;6.57;3.97;;;;;;;;;;5005844;28;20057;-49
2023/09/06 12:33:46;;;;;;;4.75;4.07;;;;;;;;;;5007446;28;20057;-47
2023/09/06 12:36:21;;;;;;;3.83;3.42;;;;;;;;;;5006909;28;20151;-60
2023/09/06 12:38:48;;;;;;;6.75;3.70;;;;;;;;;;5005321;28;20138;-61
2023/09/06 12:41:22;;;;;;;7.65;4.18;;;;;;;;;;5005943;28;20080;-60
2023/09/06 12:43:49;;;;;;;4.55;3.75;;;;;;;;;;5005790;28;20707;-60
2023/09/06 12:46:18;;;;;;;8.00;3.90;;;;;;;;;;5008217;28;20050;-62
2023/09/06 12:48:52;;;;;;;6.45;3.75;;;;;;;;;;5005584;28;20057;-59
2023/09/06 12:51:19;;;;;;;4.22;3.83;;;;;;;;;;5007581;28;20052;-60
2023/09/06 12:53:52;;;;;;;6.10;3.92;;;;;;;;;;5007364;28;20129;-60
2023/09/06 12:56:20;;;;;;;4.95;3.75;;;;;;;;;;5008784;28;20497;-59
2023/09/06 12:58:53;;;;;;;6.20;3.97;;;;;;;;;;5004417;28;20061;-60
2023/09/06 13:01:21;;;;;;;3.70;3.40;;;;;;;;;;5005891;28;20172;-60
2023/09/06 13:03:55;;;;;;;5.90;3.65;;;;;;;;;;5004340;28;20524;-60
2023/09/06 13:06:22;;;;;;;5.85;3.92;;;;;;;;;;5008289;28;20050;-60
2023/09/06 13:08:50;;;;;;;4.93;3.83;;;;;;;;;;5003721;28;20049;-60
2023/09/06 13:11:24;;;;;;;6.20;3.50;;;;;;;;;;5005904;28;20050;-61
2023/09/06 13:13:51;;;;;;;4.22;3.75;;;;;;;;;;5005318;28;20155;-57
2023/09/06 13:16:19;;;;;;;7.35;4.15;;;;;;;;;;4987237;28;20061;-59
2023/09/06 13:18:53;;;;;;;4.68;3.85;;;;;;;;;;5004373;28;20058;-51
2023/09/06 13:21:26;;;;;;;5.35;3.78;;;;;;;;;;5008530;28;20068;-50
2023/09/06 13:24:01;;;;;;;5.68;3.53;;;;;;;;;;5006848;28;20069;-47
2023/09/06 13:26:28;;;;;;;4.22;3.22;;;;;;;;;;5010158;28;20061;-48
2023/09/06 13:29:03;;;;;;;5.22;3.47;;;;;;;;;;5008097;28;20053;-51
2023/09/06 13:31:30;;;;;;;4.38;3.70;;;;;;;;;;5007223;28;20604;-51
2023/09/06 13:33:58;;;;;;;6.13;3.90;;;;;;;;;;5008201;28;20061;-53
2023/09/06 13:36:36;;;;;;;6.68;3.75;;;;;;;;;;5005608;28;20081;-51
2023/09/06 13:39:09;;;;;;;6.90;4.00;;;;;;;;;;5009400;28;20050;-50
2023/09/06 13:41:44;;;;;;;4.70;3.70;;;;;;;;;;5009559;28;20061;-49
2023/09/06 13:44:11;;;;;;;9.88;4.30;;;;;;;;;;5007251;28;20115;-60
2023/09/06 13:46:39;;;;;;;4.30;3.55;;;;;;;;;;5009978;28;20053;-49
2023/09/06 13:49:12;;;;;;;5.47;3.47;;;;;;;;;;5006930;28;20053;-48
2023/09/06 13:51:40;;;;;;;4.88;3.60;;;;;;;;;;5004331;28;20112;-48
2023/09/06 13:54:14;;;;;;;4.80;3.63;;;;;;;;;;5008984;28;20124;-53
2023/09/06 13:56:41;;;;;;;6.57;4.22;;;;;;;;;;5005810;28;20054;-49
2023/09/06 13:59:08;;;;;;;6.35;3.92;;;;;;;;;;5007127;28;20093;-51
2023/09/06 14:01:43;;;;;;;8.88;4.10;;;;;;;;;;5008032;28;20084;-60
2023/09/06 14:04:25;;;;;;;4.30;3.38;;;;;;;;;;5009226;28;20702;-60
2023/09/06 14:07:05;;;;;;;4.82;3.90;;;;;;;;;;5006109;28;20056;-61
2023/09/06 14:09:32;;;;;;;5.35;3.67;;;;;;;;;;5006367;28;20045;-60
2023/09/06 14:12:07;;;;;;;6.43;3.60;;;;;;;;;;5006611;28;20077;-56
2023/09/06 14:14:41;;;;;;;7.18;3.70;;;;;;;;;;5007632;28;20116;-49
2023/09/06 14:17:16;;;;;;;6.68;3.67;;;;;;;;;;5008262;28;20076;-52
2023/09/06 14:19:50;;;;;;;4.20;3.38;;;;;;;;;;5000575;28;20058;-50
2023/09/06 14:22:30;;;;;;;5.53;4.10;;;;;;;;;;4998746;28;20062;-51
2023/09/06 14:24:57;;;;;;;4.65;3.53;;;;;;;;;;4991480;28;20060;-49
2023/09/06 14:27:32;;;;;;;7.57;3.42;;;;;;;;;;5004337;28;20057;-47
2023/09/06 14:30:19;;;;;;;5.95;3.50;;;;;;;;;;4980241;28;20082;-47
2023/09/06 14:33:13;;;;;;;4.95;3.53;;;;;;;;;;5000558;28;20057;-51
2023/09/06 14:36:07;;;;;;;5.78;3.58;;;;;;;;;;5003233;28;20054;-48
2023/09/06 14:38:55;;;;;;;6.55;3.78;;;;;;;;;;5000151;28;20050;-62
2023/09/06 14:41:48;;;;;;;4.85;3.63;;;;;;;;;;5000054;28;20053;-61
2023/09/06 14:44:36;;;;;;;4.82;3.70;;;;;;;;;;4993596;28;20245;-62
2023/09/06 14:47:30;;;;;;;6.20;3.65;;;;;;;;;;4998787;28;20050;-61
2023/09/06 14:50:17;;;;;;;5.65;3.40;;;;;;;;;;5005434;28;20053;-61
2023/09/06 14:53:11;;;;;;;7.78;4.15;;;;;;;;;;5004749;28;20062;-61
2023/09/06 14:56:01;;;;;;;4.47;3.83;;;;;;;;;;5001795;28;20054;-61
2023/09/06 14:58:55;;;;;;;5.82;3.92;;;;;;;;;;4999749;28;20045;-61
2023/09/06 15:01:22;;;;;;;7.07;4.20;;;;;;;;;;5002609;28;20651;-50
2023/09/06 15:03:49;;;;;;;4.70;3.25;;;;;;;;;;4998813;28;20088;-50
2023/09/06 15:06:24;;;;;;;4.60;4.13;;;;;;;;;;5003260;28;20085;-51
2023/09/06 15:09:26;;;;;;;3.35;3.03;;;;;;;;;;5000751;28;20054;-50
2023/09/06 15:12:13;;;;;;;7.55;3.78;;;;;;;;;;4996379;28;20053;-53
2023/09/06 15:15:07;;;;;;;6.05;3.75;;;;;;;;;;4991680;28;20069;-51
2023/09/06 15:17:54;;;;;;;4.83;3.77;;;;;;;;;;4998097;28;21601;-60
2023/09/06 15:20:55;;;;;;;7.28;3.63;;;;;;;;;;5003435;28;20108;-60
2023/09/06 15:23:48;;;;;;;5.15;3.47;;;;;;;;;;5003550;28;20053;-60
2023/09/06 15:26:42;;;;;;;4.53;3.72;;;;;;;;;;5001085;28;20063;-61
2023/09/06 15:29:42;;;;;;;5.25;3.35;;;;;;;;;;4994115;28;20497;-58
2023/09/06 15:32:31;;;;;;;5.07;3.88;;;;;;;;;;5001864;28;20132;-58
2023/09/06 15:35:18;;;;;;;5.65;3.78;;;;;;;;;;5004069;28;20050;-58
2023/09/06 15:38:12;;;;;;;6.05;3.78;;;;;;;;;;4998821;28;20462;-57
2023/09/06 15:41:00;;;;;;;4.57;3.53;;;;;;;;;;5000463;28;21224;-58
2023/09/06 15:43:53;;;;;;;5.75;3.83;;;;;;;;;;4997174;28;20061;-60
2023/09/06 15:46:47;;;;;;;3.97;3.58;;;;;;;;;;4999728;28;20054;-61
2023/09/06 15:49:22;;;;;;;6.72;3.90;;;;;;;;;;4997909;28;20065;-61
2023/09/06 15:51:49;;;;;;;6.10;3.50;;;;;;;;;;5001109;28;20112;-60
2023/09/06 15:54:17;;;;;;;5.13;3.83;;;;;;;;;;4999363;28;21083;-51
2023/09/06 15:56:51;;;;;;;7.78;4.00;;;;;;;;;;5002490;28;20056;-51
2023/09/06 15:59:19;;;;;;;4.10;3.67;;;;;;;;;;4996672;28;20066;-62
2023/09/06 16:01:54;;;;;;;5.00;3.22;;;;;;;;;;4994564;28;20910;-61
2023/09/06 16:04:21;;;;;;;8.25;3.85;;;;;;;;;;4994619;28;20058;-62
2023/09/06 16:06:48;;;;;;;5.50;3.42;;;;;;;;;;4995968;28;20049;-62
2023/09/06 16:09:22;;;;;;;6.28;3.70;;;;;;;;;;4995488;28;20054;-62
2023/09/06 16:11:54;;;;;;;7.65;3.65;;;;;;;;;;4991135;28;20145;-61
2023/09/06 16:14:29;;;;;;;4.43;3.60;;;;;;;;;;4989887;28;20058;-56
2023/09/06 16:16:57;;;;;;;4.32;3.88;;;;;;;;;;4998195;28;20057;-61
2023/09/06 16:19:24;;;;;;;7.68;3.83;;;;;;;;;;4999739;28;20054;-61
2023/09/06 16:22:24;;;;;;;5.95;4.07;;;;;;;;;;5003247;28;20196;-61
2023/09/06 16:25:18;;;;;;;4.47;3.40;;;;;;;;;;4999662;28;20060;-61
2023/09/06 16:28:06;;;;;;;5.38;3.80;;;;;;;;;;5001787;28;20517;-61
2023/09/06 16:31:00;;;;;;;5.90;3.78;;;;;;;;;;4995980;28;20481;-60
2023/09/06 16:33:47;;;;;;;5.43;3.63;;;;;;;;;;4997699;28;20093;-56